createdAt,value
2018-06-22T00:05:09.192Z,46.69
2018-06-22T00:07:42.655Z,46.71
2018-06-22T00:10:15.236Z,47.23
2018-06-22T00:12:48.472Z,47.61
2018-06-22T00:15:20.418Z,47.79
2018-06-22T00:17:53.722Z,48.35
2018-06-22T00:20:25.401Z,49.54
2018-06-22T00:22:58.625Z,49.01
2018-06-22T00:25:31.855Z,49.34
2018-06-22T00:28:06.316Z,49.95
2018-06-22T00:33:14.223Z,49.83
2018-06-22T00:35:48.526Z,50.01
2018-06-22T00:38:19.844Z,50.34
2018-06-22T00:40:52.006Z,50.44
2018-06-22T00:43:23.591Z,51.55
2018-06-22T00:45:56.651Z,51.78
2018-06-22T00:48:29.723Z,51.96
2018-06-22T00:51:02.146Z,52.21
2018-06-22T00:56:11.595Z,52.96
2018-06-22T00:58:45.196Z,54.54
2018-06-22T01:01:18.004Z,53.89
2018-06-22T01:03:50.477Z,53.91
2018-06-22T01:06:23.465Z,53.88
2018-06-22T01:11:33.252Z,54.11
2018-06-22T01:14:06.128Z,54.23
2018-06-22T01:16:39.091Z,54.83
2018-06-22T01:19:11.403Z,54.90
2018-06-22T01:21:44.943Z,55.25
2018-06-22T01:24:18.901Z,55.81
2018-06-22T01:26:54.359Z,56.58
2018-06-22T01:29:28.070Z,56.41
2018-06-22T01:32:01.359Z,56.88
2018-06-22T01:34:36.084Z,57.00
2018-06-22T01:37:09.273Z,57.31
2018-06-22T01:39:38.702Z,57.50
2018-06-22T01:42:08.661Z,57.48
2018-06-22T01:44:37.734Z,57.64
2018-06-22T01:47:07.062Z,57.10
2018-06-22T01:49:36.154Z,57.39
2018-06-22T01:52:05.211Z,58.44
2018-06-22T01:54:34.268Z,58.62
2018-06-22T01:57:03.910Z,57.94
2018-06-22T01:59:32.969Z,58.63
2018-06-22T02:02:02.969Z,59.46
2018-06-22T02:04:32.262Z,60.07
2018-06-22T02:07:01.458Z,59.54
2018-06-22T02:09:30.492Z,60.27
2018-06-22T02:14:09.922Z,60.99
2018-06-22T02:16:38.974Z,60.78
2018-06-22T02:21:44.179Z,60.98
2018-06-22T02:24:13.209Z,60.90
2018-06-22T02:26:42.269Z,62.49
2018-06-22T02:29:11.681Z,62.42
2018-06-22T02:31:40.748Z,63.50
2018-06-22T02:34:09.900Z,65.40
2018-06-22T02:36:39.311Z,66.49
2018-06-22T02:39:08.376Z,66.91
2018-06-22T02:41:37.423Z,67.41
2018-06-22T02:44:06.461Z,67.42
2018-06-22T02:46:35.793Z,68.16
2018-06-22T02:49:04.838Z,67.92
2018-06-22T02:51:33.871Z,67.74
2018-06-22T02:59:18.708Z,68.82
2018-06-22T03:01:47.993Z,67.87
2018-06-22T03:04:17.037Z,69.26
2018-06-22T03:06:46.092Z,70.25
2018-06-22T03:09:15.352Z,71.86
2018-06-22T03:11:44.396Z,71.30
2018-06-22T03:14:13.445Z,71.46
2018-06-22T03:19:18.191Z,71.33
2018-06-22T03:21:47.227Z,71.58
2018-06-22T03:26:53.241Z,71.27
2018-06-22T03:29:23.305Z,72.48
2018-06-22T03:31:52.583Z,72.50
2018-06-22T03:34:21.615Z,72.12
2018-06-22T03:36:50.662Z,74.82
2018-06-22T03:39:20.841Z,74.98
2018-06-22T03:41:49.884Z,74.93
2018-06-22T03:44:18.940Z,75.97
2018-06-22T03:46:48.112Z,75.90
2018-06-22T03:49:18.342Z,76.01
2018-06-22T03:51:47.389Z,76.75
2018-06-22T03:54:16.437Z,75.80
2018-06-22T03:56:45.871Z,75.10
2018-06-22T04:01:50.791Z,73.42
2018-06-22T04:04:20.018Z,75.02
2018-06-22T04:06:49.033Z,75.30
2018-06-22T04:09:19.130Z,74.27
2018-06-22T04:14:28.252Z,75.55
2018-06-22T04:16:57.305Z,75.85
2018-06-22T04:22:02.123Z,75.82
2018-06-22T04:24:31.311Z,75.45
2018-06-22T04:27:00.450Z,74.61
2018-06-22T04:29:29.501Z,73.21
2018-06-22T04:31:58.544Z,72.62
2018-06-22T04:34:27.844Z,73.19
2018-06-22T04:36:56.943Z,72.68
2018-06-22T04:39:25.974Z,71.57
2018-06-22T04:41:55.026Z,71.26
2018-06-22T04:46:59.844Z,70.79
2018-06-22T04:49:29.442Z,71.94
2018-06-22T04:51:58.713Z,73.43
2018-06-22T04:54:27.769Z,72.74
2018-06-22T04:56:57.005Z,70.85
2018-06-22T04:59:27.070Z,68.83
2018-06-22T05:01:56.092Z,68.73
2018-06-22T05:04:25.145Z,69.34
2018-06-22T05:06:54.412Z,69.33
2018-06-22T05:09:23.499Z,68.28
2018-06-22T05:11:52.575Z,67.04
2018-06-22T05:14:21.669Z,67.16
2018-06-22T05:16:50.735Z,67.20
2018-06-22T05:19:19.786Z,66.94
2018-06-22T05:21:48.891Z,66.54
2018-06-22T05:24:18.027Z,66.37
2018-06-22T05:26:47.077Z,66.76
2018-06-22T05:29:16.237Z,66.35
2018-06-22T05:31:45.406Z,66.53
2018-06-22T05:34:14.497Z,66.54
2018-06-22T05:36:43.549Z,67.00
2018-06-22T05:39:12.961Z,63.79
2018-06-22T05:41:42.024Z,64.66
2018-06-22T05:44:11.102Z,64.98
2018-06-22T05:49:16.869Z,65.20
2018-06-22T05:51:50.975Z,64.84
2018-06-22T05:54:20.036Z,64.27
2018-06-22T05:57:02.067Z,63.99
2018-06-22T05:59:46.662Z,63.46
2018-06-22T06:02:30.852Z,63.20
2018-06-22T06:05:18.905Z,63.66
2018-06-22T06:07:52.348Z,63.60
2018-06-22T06:10:21.406Z,64.49
2018-06-22T06:13:07.786Z,63.96
2018-06-22T06:15:37.928Z,64.90
2018-06-22T06:20:44.818Z,63.86
2018-06-22T06:23:14.316Z,63.73
2018-06-22T06:25:47.752Z,62.36
2018-06-22T06:28:17.358Z,63.10
2018-06-22T06:30:47.361Z,61.74
2018-06-22T06:33:16.401Z,61.85
2018-06-22T06:35:50.018Z,61.96
2018-06-22T06:38:19.053Z,62.46
2018-06-22T06:40:52.655Z,62.99
2018-06-22T06:43:21.910Z,62.26
2018-06-22T06:45:50.968Z,63.00
2018-06-22T06:50:55.927Z,60.89
2018-06-22T06:53:25.012Z,61.32
2018-06-22T06:55:58.719Z,61.57
2018-06-22T06:58:27.799Z,59.91
2018-06-22T07:00:57.169Z,59.59
2018-06-22T07:03:26.227Z,60.48
2018-06-22T07:08:31.330Z,60.24
2018-06-22T07:11:00.365Z,59.77
2018-06-22T07:13:29.398Z,57.92
2018-06-22T07:15:58.972Z,59.48
2018-06-22T07:18:28.964Z,57.28
2018-06-22T07:20:58.038Z,59.97
2018-06-22T07:23:32.689Z,62.78
2018-06-22T07:28:41.611Z,56.10
2018-06-22T07:31:11.869Z,56.62
2018-06-22T07:33:40.912Z,57.41
2018-06-22T07:36:09.987Z,58.07
2018-06-22T07:38:47.180Z,58.23
2018-06-22T07:41:16.229Z,55.61
2018-06-22T07:43:45.286Z,56.34
2018-06-22T07:48:51.087Z,56.37
2018-06-22T07:51:20.173Z,55.60
2018-06-22T07:53:51.189Z,54.97
2018-06-22T07:56:22.917Z,54.69
2018-06-22T07:58:56.141Z,54.99
2018-06-22T08:01:25.785Z,56.01
2018-06-22T08:03:54.867Z,54.90
2018-06-22T08:06:25.914Z,52.95
2018-06-22T08:08:55.095Z,51.96
2018-06-22T08:11:38.489Z,52.62
2018-06-22T08:14:07.999Z,54.90
2018-06-22T08:16:46.013Z,53.54
2018-06-22T08:19:16.298Z,53.59
2018-06-22T08:21:45.365Z,53.49
2018-06-22T08:24:16.723Z,52.67
2018-06-22T08:29:23.130Z,51.24
2018-06-22T08:31:52.335Z,53.50
2018-06-22T08:36:57.428Z,50.33
2018-06-22T08:39:26.474Z,49.62
2018-06-22T08:41:55.616Z,49.97
2018-06-22T08:44:27.406Z,50.66
2018-06-22T08:47:00.072Z,49.14
2018-06-22T08:49:38.032Z,48.13
2018-06-22T08:52:09.785Z,49.60
2018-06-22T08:54:42.016Z,49.61
2018-06-22T08:59:52.969Z,48.78
2018-06-22T09:02:26.376Z,49.27
2018-06-22T09:04:58.974Z,49.34
2018-06-22T09:10:09.152Z,47.54
2018-06-22T09:12:42.279Z,47.06
2018-06-22T09:15:18.182Z,45.57
2018-06-22T09:17:51.749Z,47.13
2018-06-22T09:20:35.243Z,46.69
2018-06-22T09:23:31.086Z,46.58
2018-06-22T09:28:40.640Z,49.19
2018-06-22T09:33:52.250Z,41.62
2018-06-22T09:39:01.900Z,44.27
2018-06-22T09:41:34.709Z,43.61
2018-06-22T09:44:16.457Z,42.50
2018-06-22T09:46:49.906Z,41.46
2018-06-22T09:49:22.894Z,43.36
2018-06-22T09:51:56.041Z,44.69
2018-06-22T09:54:34.432Z,42.12
2018-06-22T09:57:07.549Z,42.74
2018-06-22T09:59:40.745Z,42.54
2018-06-22T10:04:50.003Z,43.44
2018-06-22T10:07:22.769Z,41.84
2018-06-22T10:09:55.143Z,39.33
2018-06-22T10:12:26.256Z,37.14
2018-06-22T10:14:59.327Z,36.78
2018-06-22T10:17:34.312Z,36.84
2018-06-22T10:20:27.070Z,34.20
2018-06-22T10:22:59.548Z,37.58
2018-06-22T10:25:32.050Z,37.84
2018-06-22T10:28:11.472Z,37.97
2018-06-22T10:30:46.006Z,38.09
2018-06-22T10:33:18.944Z,39.64
2018-06-22T10:35:51.355Z,37.92
2018-06-22T10:38:28.719Z,39.63
2018-06-22T10:41:00.697Z,40.83
2018-06-22T10:43:33.007Z,39.69
2018-06-22T10:46:05.912Z,36.84
2018-06-22T10:48:48.489Z,38.20
2018-06-22T10:51:21.466Z,41.57
2018-06-22T10:53:53.119Z,39.25
2018-06-22T10:56:47.965Z,36.86
2018-06-22T11:01:59.263Z,37.65
2018-06-22T11:04:40.083Z,34.38
2018-06-22T11:07:15.064Z,37.57
2018-06-22T11:09:49.023Z,39.81
2018-06-22T11:12:23.764Z,41.26
2018-06-22T11:14:55.128Z,42.48
2018-06-22T11:20:04.345Z,43.15
2018-06-22T11:22:38.801Z,39.90
2018-06-22T11:27:48.349Z,39.84
2018-06-22T11:30:29.113Z,40.96
2018-06-22T11:33:03.940Z,42.23
2018-06-22T11:35:36.338Z,39.80
2018-06-22T11:38:09.374Z,37.54
2018-06-22T11:43:24.172Z,39.50
2018-06-22T11:45:55.411Z,38.40
2018-06-22T11:51:02.799Z,39.62
2018-06-22T11:53:38.742Z,40.90
2018-06-22T11:58:50.922Z,42.29
2018-06-22T12:01:28.310Z,42.16
2018-06-22T12:03:59.130Z,43.48
2018-06-22T12:06:36.454Z,45.21
2018-06-22T12:09:10.443Z,45.07
2018-06-22T12:11:42.405Z,44.96
2018-06-22T12:14:18.994Z,44.73
2018-06-22T12:16:52.162Z,43.05
2018-06-22T12:19:24.664Z,44.56
2018-06-22T12:21:53.720Z,37.72
2018-06-22T12:24:23.727Z,35.59
2018-06-22T12:26:52.803Z,37.98
2018-06-22T12:32:23.205Z,40.93
2018-06-22T12:34:52.267Z,41.20
2018-06-22T12:37:27.114Z,42.71
2018-06-22T12:39:56.185Z,44.83
2018-06-22T12:42:27.243Z,44.24
2018-06-22T12:44:56.346Z,44.43
2018-06-22T12:47:25.372Z,43.90
2018-06-22T12:49:54.427Z,44.80
2018-06-22T12:52:23.510Z,43.35
2018-06-22T12:54:53.502Z,43.16
2018-06-22T12:57:46.134Z,41.45
2018-06-22T13:02:50.974Z,42.59
2018-06-22T13:07:56.315Z,44.03
2018-06-22T13:10:26.438Z,44.69
2018-06-22T13:12:55.877Z,45.84
2018-06-22T13:15:24.938Z,45.24
2018-06-22T13:17:54.002Z,46.26
2018-06-22T13:20:23.068Z,46.45
2018-06-22T13:22:52.173Z,45.44
2018-06-22T13:27:58.080Z,46.47
2018-06-22T13:30:27.113Z,45.96
2018-06-22T13:32:58.183Z,45.32
2018-06-22T13:35:36.160Z,45.30
2018-06-22T13:38:06.221Z,44.14
2018-06-22T13:40:39.795Z,42.82
2018-06-22T13:43:08.881Z,42.61
2018-06-22T13:45:45.220Z,41.46
2018-06-22T13:48:14.274Z,41.86
2018-06-22T13:53:23.276Z,39.41
2018-06-22T13:55:56.486Z,38.80
2018-06-22T13:58:29.554Z,36.30
2018-06-22T14:01:03.188Z,39.01
2018-06-22T14:03:41.988Z,42.15
2018-06-22T14:09:10.069Z,41.81
2018-06-22T14:11:39.185Z,42.36
2018-06-22T14:14:08.392Z,43.09
2018-06-22T14:16:59.341Z,42.36
2018-06-22T14:19:28.394Z,42.06
2018-06-22T14:22:08.250Z,41.78
2018-06-22T14:24:37.296Z,40.10
2018-06-22T14:27:10.811Z,38.39
2018-06-22T14:29:40.093Z,40.96
2018-06-22T14:32:09.173Z,41.37
2018-06-22T14:34:38.221Z,41.01
2018-06-22T14:37:09.181Z,43.49
2018-06-22T14:39:39.348Z,40.40
2018-06-22T14:42:08.854Z,37.88
2018-06-22T14:44:38.126Z,34.82
2018-06-22T14:47:09.248Z,37.49
2018-06-22T14:49:38.332Z,37.04
2018-06-22T14:52:07.518Z,36.79
2018-06-22T14:54:42.102Z,37.76
2018-06-22T15:03:09.933Z,35.40
2018-06-22T15:08:35.833Z,35.44
2018-06-22T15:11:08.885Z,35.70
2018-06-22T15:13:38.872Z,35.32
2018-06-22T15:16:07.955Z,34.62
2018-06-22T15:18:37.195Z,35.75
2018-06-22T15:21:14.459Z,33.00
2018-06-22T15:23:43.522Z,30.46
2018-06-22T15:26:27.889Z,30.53
2018-06-22T15:29:21.137Z,32.72
2018-06-22T15:31:50.196Z,31.79
2018-06-22T15:37:34.049Z,30.89
2018-06-22T15:40:08.561Z,31.06
2018-06-22T15:45:33.393Z,29.65
2018-06-22T15:56:39.913Z,30.71
2018-06-22T15:59:08.990Z,29.79
2018-06-22T16:01:38.287Z,29.46
2018-06-22T16:04:18.604Z,30.44
2018-06-22T16:06:47.655Z,30.69
2018-06-22T16:09:28.622Z,31.18
2018-06-22T16:12:01.587Z,32.78
2018-06-22T16:14:31.569Z,31.94
2018-06-22T16:28:54.614Z,33.13
2018-06-22T16:31:23.750Z,36.09
2018-06-22T16:33:52.912Z,38.21
2018-06-22T16:39:01.595Z,41.94
2018-06-22T16:41:30.829Z,41.20
2018-06-22T16:44:04.652Z,42.08
2018-06-22T16:46:34.597Z,42.74
2018-06-22T16:49:07.517Z,42.21
2018-06-22T16:51:36.589Z,41.92
2018-06-22T16:54:25.382Z,41.97
2018-06-22T16:56:54.445Z,41.96
2018-06-22T16:59:28.752Z,42.80
2018-06-22T17:02:00.858Z,42.73
2018-06-22T17:04:30.825Z,43.33
2018-06-22T17:06:59.887Z,42.62
2018-06-22T17:21:17.626Z,45.13
2018-06-22T17:23:47.254Z,45.41
2018-06-22T17:26:16.316Z,45.20
2018-06-22T17:28:46.489Z,46.58
2018-06-22T17:31:28.309Z,45.61
2018-06-22T17:36:33.122Z,46.05
2018-06-22T17:39:19.641Z,46.76
2018-06-22T17:41:48.711Z,46.98
2018-06-22T17:44:29.531Z,46.04
2018-06-22T17:46:58.589Z,46.46
2018-06-22T17:49:28.549Z,47.02
2018-06-22T17:51:57.819Z,46.41
2018-06-22T17:54:28.810Z,47.89
2018-06-22T17:59:46.232Z,49.77
2018-06-22T18:05:04.010Z,48.37
2018-06-22T18:07:33.083Z,49.27
2018-06-22T18:10:02.131Z,50.37
2018-06-22T18:12:46.168Z,50.55
2018-06-22T18:17:50.933Z,50.46
2018-06-22T18:20:20.081Z,51.59
2018-06-22T18:25:25.693Z,52.38
2018-06-22T18:27:55.705Z,52.25
2018-06-22T18:33:00.958Z,52.45
2018-06-22T18:35:30.012Z,52.14
2018-06-22T18:37:59.134Z,53.10
2018-06-22T18:40:28.182Z,53.94
2018-06-22T18:42:57.248Z,53.64
2018-06-22T18:45:26.305Z,54.22
2018-06-22T18:47:55.374Z,54.90
2018-06-22T18:50:25.478Z,56.51
2018-06-22T19:01:22.449Z,56.41
2018-06-22T19:03:52.470Z,56.96
2018-06-22T19:06:29.453Z,57.82
2018-06-22T19:09:00.486Z,59.36
2018-06-22T19:11:29.569Z,59.94
2018-06-22T19:13:58.606Z,60.21
2018-06-22T19:16:29.577Z,59.47
2018-06-22T19:19:02.625Z,60.36
2018-06-22T19:21:32.588Z,59.18
2018-06-22T19:24:01.647Z,58.30
2018-06-22T19:26:30.713Z,58.09
2018-06-22T19:28:59.798Z,57.58
2018-06-22T19:31:28.858Z,56.85
2018-06-22T19:33:57.969Z,56.86
2018-06-22T19:36:27.955Z,56.80
2018-06-22T19:38:57.989Z,56.87
2018-06-22T19:41:27.946Z,56.45
2018-06-22T19:43:56.998Z,56.84
2018-06-22T19:55:14.700Z,61.10
2018-06-22T20:00:19.529Z,61.60
2018-06-22T20:05:24.316Z,63.26
2018-06-22T20:07:53.372Z,66.56
2018-06-22T20:10:22.471Z,67.67
2018-06-22T20:15:27.221Z,66.07
2018-06-22T20:17:56.293Z,67.45
2018-06-22T20:20:25.385Z,67.54
2018-06-22T20:22:55.022Z,69.58
2018-06-22T20:25:24.129Z,72.96
2018-06-22T20:30:28.966Z,73.63
2018-06-22T20:32:58.973Z,71.23
2018-06-22T20:44:09.178Z,72.26
2018-06-22T20:46:39.197Z,74.70
2018-06-22T20:52:03.992Z,77.14
2018-06-22T20:54:34.341Z,77.85
2018-06-22T20:57:03.649Z,74.06
2018-06-22T20:59:32.698Z,75.86
2018-06-22T21:02:02.155Z,79.84
2018-06-22T21:04:31.221Z,75.36
2018-06-22T21:07:03.297Z,79.10
2018-06-22T21:09:34.333Z,80.00
2018-06-22T21:12:05.118Z,79.81
2018-06-22T21:14:34.169Z,78.69
2018-06-22T21:17:03.206Z,80.47
2018-06-22T21:22:08.029Z,81.67
2018-06-22T21:24:37.073Z,80.84
2018-06-22T21:27:06.117Z,81.96
2018-06-22T21:41:27.417Z,82.38
2018-06-22T21:43:56.575Z,82.44
2018-06-22T21:46:25.627Z,80.67
2018-06-22T21:51:30.441Z,82.54
2018-06-22T21:53:59.483Z,83.16
2018-06-22T21:56:28.518Z,84.38
2018-06-22T21:58:57.555Z,83.84
2018-06-22T22:01:26.626Z,84.21
2018-06-22T22:03:55.681Z,84.44
2018-06-22T22:06:24.733Z,83.22
2018-06-22T22:08:54.733Z,84.22
2018-06-22T22:11:23.788Z,85.05
2018-06-22T22:16:28.589Z,85.70
2018-06-22T22:18:57.640Z,84.03
2018-06-22T22:21:26.676Z,85.44
2018-06-22T22:23:55.811Z,85.67
2018-06-22T22:26:24.906Z,83.76
2018-06-22T22:28:54.056Z,84.11
2018-06-22T22:31:23.109Z,85.35
2018-06-22T22:33:52.165Z,82.63
2018-06-22T22:36:21.194Z,85.35
2018-06-22T22:41:25.996Z,84.97
2018-06-22T22:43:55.099Z,84.46
2018-06-22T22:46:24.198Z,84.43
2018-06-22T22:48:53.283Z,84.06
2018-06-22T22:51:22.312Z,85.09
2018-06-22T22:53:51.367Z,84.19
2018-06-22T22:56:20.409Z,84.74
2018-06-22T22:58:53.292Z,86.67
2018-06-22T23:01:22.349Z,86.43
2018-06-22T23:03:51.481Z,83.57
2018-06-22T23:08:58.312Z,85.84
2018-06-22T23:11:27.374Z,84.86
2018-06-22T23:16:32.167Z,84.27
2018-06-22T23:19:01.237Z,85.20
2018-06-22T23:21:33.338Z,86.31
2018-06-22T23:24:02.364Z,85.65
2018-06-22T23:26:31.478Z,84.94
2018-06-22T23:29:01.424Z,86.21
2018-06-22T23:31:30.473Z,85.49
2018-06-22T23:34:02.692Z,86.00
2018-06-22T23:36:31.744Z,85.67
2018-06-22T23:39:00.785Z,84.18
2018-06-22T23:41:30.862Z,85.73
2018-06-22T23:44:01.879Z,85.13
2018-06-22T23:46:30.924Z,84.61
2018-06-22T23:51:35.768Z,80.92
2018-06-22T23:54:05.821Z,80.57
2018-06-22T23:58:57.078Z,80.95
